Thorco Reef — VRIP4 — position and weather

sailwx.info

Track history (hours):
 
Tides and Currents Weather Stations Pressure Air Temp Water Temp Dewpoint Dewpoint Depression Visibility Wind Speed Wind Dir Waves Ship Positions

Thorco Reef

Last reported at 2018-May-01 14:32 UTC. Time now 2018-May-21 09:15 UTC.
Position N 28°04' W 014°06'.
Warning: this ship's position is 19 days out of date.

Length 161 m; draft 7 m.

Type: Ship. MMSI: 477196900.

Date/timePositionNaut miles runAvg speedWind from/ knotsBaromVisibWave heightAir tempDewpointWater temp
2018-May-01 14:32N 28°04' W 014°06'014.7
2018-May-01 14:30N 28°04' W 014°06'814.4
2018-May-01 13:58N 28°08' W 013°59'2414.4
2018-May-01 12:17N 28°26' W 013°41'514.7
2018-May-01 11:59N 28°30' W 013°38'714.8
2018-May-01 11:30N 28°36' W 013°34'714.7
2018-May-01 11:00N 28°43' W 013°30'814.8
2018-May-01 10:30N 28°49' W 013°26'714.9
2018-May-01 10:00N 28°56' W 013°22'714.9
2018-May-01 09:30N 29°02' W 013°17'  
2018-Apr-27 02:51N 49°52' W 004°03'2 5.8
2018-Apr-27 02:27N 49°53' W 004°00'3 6.0
2018-Apr-27 02:01N 49°55' W 003°57'3 6.3
2018-Apr-27 01:31N 49°57' W 003°54'3 6.8
2018-Apr-27 01:00N 49°59' W 003°50'4 7.5
2018-Apr-27 00:30N 50°02' W 003°45'4 8.4
2018-Apr-27 00:00N 50°05' W 003°40'4 8.7
2018-Apr-26 23:30N 50°08' W 003°35'4 8.6
2018-Apr-26 23:00N 50°10' W 003°30'4 8.3
2018-Apr-26 22:30N 50°14' W 003°26'4 8.4
2018-Apr-26 22:00N 50°18' W 003°23'4 8.0
2018-Apr-26 21:30N 50°21' W 003°21'4 7.7
2018-Apr-26 21:01N 50°24' W 003°18'4 7.4
2018-Apr-26 20:31N 50°27' W 003°14'3 6.9
2018-Apr-26 20:01N 50°29' W 003°10'3 6.4
2018-Apr-26 19:30N 50°32' W 003°06'3 5.5
2018-Apr-26 19:00N 50°33' W 003°02'3 5.7
2018-Apr-26 18:30N 50°33' W 002°58'3 5.3
2018-Apr-26 18:00N 50°32' W 002°54'3 5.0
2018-Apr-26 17:30N 50°32' W 002°50'2 4.9
2018-Apr-26 17:00N 50°32' W 002°46'2 4.8
2018-Apr-26 16:30N 50°32' W 002°42'3 5.1
2018-Apr-26 16:00N 50°31' W 002°38'2 5.0
2018-Apr-26 15:30N 50°29' W 002°35'3 5.6
2018-Apr-26 15:00N 50°28' W 002°31'3 5.9
2018-Apr-26 14:30N 50°27' W 002°27'3 6.1
2018-Apr-26 14:01N 50°25' W 002°23'3 6.5
2018-Apr-26 13:30N 50°24' W 002°18'4 7.1
2018-Apr-26 12:52N 50°22' W 002°12'33 7.9
2018-Apr-26 08:41N 50°22' W 001°19'20 4.0
2018-Apr-26 03:39N 50°23' W 000°48'13 5.3
2018-Apr-26 01:12N 50°25' W 000°28'1 6.5
2018-Apr-26 01:00N 50°25' W 000°26'3 6.6
2018-Apr-26 00:30N 50°26' W 000°21'3 6.7
2018-Apr-26 00:01N 50°27' W 000°16'3 6.8
2018-Apr-25 23:31N 50°28' W 000°10'3 6.7
2018-Apr-25 23:01N 50°29' W 000°05'3 6.3
2018-Apr-25 22:29N 50°30' W 000°00'3 6.0
2018-Apr-25 22:00N 50°31' E 000°04'3 5.5
2018-Apr-25 21:29N 50°31' E 000°08'3 5.3
2018-Apr-25 21:00N 50°32' E 000°12'2 5.0
2018-Apr-25 20:31N 50°33' E 000°16'2 4.7
2018-Apr-25 20:00N 50°33' E 000°19'2 4.6
2018-Apr-25 19:31N 50°34' E 000°23'2 4.5
2018-Apr-25 19:00N 50°35' E 000°26'2 4.2
2018-Apr-25 18:30N 50°35' E 000°29'2 4.0
2018-Apr-25 18:00N 50°36' E 000°32'2 4.1
2018-Apr-25 17:31N 50°37' E 000°35'2 4.3
2018-Apr-25 17:01N 50°38' E 000°38'2 4.6
2018-Apr-25 16:30N 50°39' E 000°41'2 4.9
2018-Apr-25 16:00N 50°40' E 000°44'3 5.6
2018-Apr-25 15:31N 50°42' E 000°48'3 6.1
2018-Apr-25 15:01N 50°44' E 000°52'3 6.6
2018-Apr-25 14:31N 50°46' E 000°56'3 6.6
2018-Apr-25 14:01N 50°48' E 001°01'3 6.7
2018-Apr-25 13:29N 50°49' E 001°05'4 6.4
2018-Apr-25 12:55N 50°52' E 001°10'3 6.2
2018-Apr-25 12:23N 50°53' E 001°14'4 6.4
2018-Apr-25 11:49N 50°56' E 001°19'2 6.5
2018-Apr-25 11:29N 50°57' E 001°21'3 6.1
2018-Apr-25 11:01N 50°59' E 001°24'3 5.5
2018-Apr-25 10:31N 51°01' E 001°27'3 5.2
2018-Apr-25 10:00N 51°03' E 001°30'2 4.6
2018-Apr-25 09:31N 51°05' E 001°33'2 4.4
2018-Apr-25 09:00N 51°06' E 001°35'2 4.1
2018-Apr-25 08:31N 51°08' E 001°38'2 4.3
2018-Apr-25 08:01N 51°09' E 001°40'2 4.5
2018-Apr-25 07:31N 51°11' E 001°43'2 4.9
2018-Apr-25 07:00N 51°13' E 001°45'3 5.7
2018-Apr-25 06:30N 51°15' E 001°48'3 6.4
2018-Apr-25 06:00N 51°18' E 001°51'4 7.3
2018-Apr-25 05:31N 51°21' E 001°54'4 7.8
2018-Apr-25 05:01N 51°24' E 001°58'3 5.8
2018-Apr-25 04:30N 51°24' E 002°03'3 6.0
2018-Apr-25 04:01N 51°23' E 002°07'3 6.1
2018-Apr-25 03:31N 51°22' E 002°12'3 5.8
2018-Apr-25 03:00N 51°21' E 002°16'3 5.6
2018-Apr-25 02:30N 51°21' E 002°20'3 5.7
2018-Apr-25 02:01N 51°22' E 002°25'3 5.4
2018-Apr-25 01:30N 51°22' E 002°29'3 5.1
2018-Apr-25 00:59N 51°23' E 002°33'2 4.4
2018-Apr-25 00:29N 51°23' E 002°37'2 4.3
2018-Apr-25 00:00N 51°23' E 002°40'4 7.0
2018-Apr-24 23:28N 51°22' E 002°46'511.1
2018-Apr-24 23:00N 51°23' E 002°54'712.6
2018-Apr-24 22:28N 51°24' E 003°04'612.8
2018-Apr-24 22:00N 51°25' E 003°14'713.2
2018-Apr-24 21:30N 51°25' E 003°25'613.0
2018-Apr-24 21:00N 51°26' E 003°35'5 9.5
2018-Apr-24 20:30N 51°25' E 003°42'612.3
2018-Apr-24 20:01N 51°21' E 003°49'611.4
2018-Apr-24 19:31N 51°23' E 003°57'3 6.7
2018-Apr-24 19:01N 51°24' E 004°02'5 9.8
2018-Apr-24 18:30N 51°23' E 004°10'4 8.6
2018-Apr-24 18:01N 51°21' E 004°16'1 2.1
2018-Apr-24 17:29N 51°21' E 004°17'0 0.0
2018-Apr-24 16:59N 51°21' E 004°17'0 0.0
2018-Apr-24 16:30N 51°21' E 004°17'0 0.5
2018-Apr-24 16:00N 51°21' E 004°18'2 3.0
2018-Apr-24 15:30N 51°20' E 004°19'0 0.7
2018-Apr-24 14:59N 51°20' E 004°20'0 0.0
2018-Apr-24 14:26N 51°20' E 004°20'0 0.0
2018-Apr-24 13:59N 51°20' E 004°20'0 0.0
2018-Apr-24 13:29N 51°20' E 004°20'0 0.0
2018-Apr-24 12:59N 51°20' E 004°20'0 0.0
2018-Apr-24 12:14N 51°20' E 004°20'0 0.0
2018-Apr-24 11:59N 51°20' E 004°20'0 0.0
2018-Apr-24 11:20N 51°20' E 004°20'0 0.0
2018-Apr-24 10:56N 51°20' E 004°20'0 0.0
2018-Apr-24 10:26N 51°20' E 004°20'0 0.0
2018-Apr-24 09:59N 51°20' E 004°20'0 0.0
2018-Apr-24 09:26N 51°20' E 004°20'0 0.0
2018-Apr-24 08:56N 51°20' E 004°20'0 0.0
2018-Apr-24 08:29N 51°20' E 004°20'0 0.0
2018-Apr-24 07:56N 51°20' E 004°20'0 0.0
2018-Apr-24 07:26N 51°20' E 004°20'0 0.0
2018-Apr-24 06:59N 51°20' E 004°20'0 0.0
2018-Apr-24 06:29N 51°20' E 004°20'0 0.0
2018-Apr-24 05:59N 51°20' E 004°20'0 0.0
2018-Apr-24 05:29N 51°20' E 004°20'0 0.0
2018-Apr-24 04:59N 51°20' E 004°20'0 0.0
2018-Apr-24 04:29N 51°20' E 004°20'0 0.0
2018-Apr-24 03:59N 51°20' E 004°20'0 0.0
2018-Apr-24 03:29N 51°20' E 004°20'0 0.0
2018-Apr-24 02:59N 51°20' E 004°20'0 0.0
2018-Apr-24 02:29N 51°20' E 004°20'0 0.0
2018-Apr-24 01:59N 51°20' E 004°20'0 0.0
2018-Apr-24 01:29N 51°20' E 004°20'0 0.0
2018-Apr-24 00:56N 51°20' E 004°20'0 0.0
2018-Apr-24 00:29N 51°20' E 004°20'0 0.0
2018-Apr-23 23:59N 51°20' E 004°20'0 0.0
2018-Apr-23 23:29N 51°20' E 004°20'0 0.0
2018-Apr-23 22:59N 51°20' E 004°20'0 0.0
2018-Apr-23 22:29N 51°20' E 004°20'0 0.0
2018-Apr-23 21:59N 51°20' E 004°20'0 0.0
2018-Apr-23 21:29N 51°20' E 004°20'0 0.0
2018-Apr-23 20:56N 51°20' E 004°20'0 0.0
2018-Apr-23 20:29N 51°20' E 004°20'0 0.0
2018-Apr-23 19:59N 51°20' E 004°20'0 0.0
2018-Apr-23 19:26N 51°20' E 004°20'0 0.0
2018-Apr-23 18:56N 51°20' E 004°20'0 0.0
2018-Apr-23 18:29N 51°20' E 004°20'0 0.0
2018-Apr-23 17:59N 51°20' E 004°20'0 0.0
2018-Apr-23 17:29N 51°20' E 004°20'0 0.0
2018-Apr-23 16:53N 51°20' E 004°20'0 0.0
2018-Apr-23 16:26N 51°20' E 004°20'0 0.0
2018-Apr-23 15:59N 51°20' E 004°20'0 0.0
2018-Apr-23 15:29N 51°20' E 004°20'0 0.0
2018-Apr-23 14:50N 51°20' E 004°20'0 0.0
2018-Apr-23 14:29N 51°20' E 004°20'0 0.0
2018-Apr-23 13:59N 51°20' E 004°20'0 0.0
2018-Apr-23 13:29N 51°20' E 004°20'0 0.0
2018-Apr-23 12:50N 51°20' E 004°20'0 0.0
2018-Apr-23 12:14N 51°20' E 004°20'0 0.0
2018-Apr-23 11:59N 51°20' E 004°20'0 0.0
2018-Apr-23 11:20N 51°20' E 004°20'0 0.0
2018-Apr-23 10:53N 51°20' E 004°20'0 0.0
2018-Apr-23 10:26N 51°20' E 004°20'0 0.0
2018-Apr-23 09:59N 51°20' E 004°20'0 0.0
2018-Apr-23 09:26N 51°20' E 004°20'0 0.0
2018-Apr-23 08:59N 51°20' E 004°20'0 0.0
2018-Apr-23 08:26N 51°20' E 004°20'0 0.0
2018-Apr-23 07:50N 51°20' E 004°20'0 0.0
2018-Apr-23 07:26N 51°20' E 004°20'0 0.0
2018-Apr-23 06:59N 51°20' E 004°20'0 0.0
2018-Apr-23 06:26N 51°20' E 004°20'0 0.0
2018-Apr-23 05:56N 51°20' E 004°20'0 0.0
2018-Apr-23 05:20N 51°20' E 004°20'0 0.0
2018-Apr-23 04:59N 51°20' E 004°20'0 0.0
2018-Apr-23 04:29N 51°20' E 004°20'0 0.0
2018-Apr-23 03:59N 51°20' E 004°20'0 0.0
2018-Apr-23 03:29N 51°20' E 004°20'0 0.0
2018-Apr-23 02:53N 51°20' E 004°20'0 0.0
2018-Apr-23 02:20N 51°20' E 004°20'0 0.0
2018-Apr-23 01:59N 51°20' E 004°20'0 0.0
2018-Apr-23 01:29N 51°20' E 004°20'0 0.0
2018-Apr-23 00:56N 51°20' E 004°20'0 0.0
2018-Apr-23 00:29N 51°20' E 004°20'0 0.0
2018-Apr-22 23:59N 51°20' E 004°20'0 0.0
2018-Apr-22 23:29N 51°20' E 004°20'0 0.0
2018-Apr-22 22:59N 51°20' E 004°20'0 0.0
2018-Apr-22 22:26N 51°20' E 004°20'0 0.0
2018-Apr-22 21:59N 51°20' E 004°20'0 0.0
2018-Apr-22 21:29N 51°20' E 004°20'0 0.0
2018-Apr-22 20:59N 51°20' E 004°20'0 0.0
2018-Apr-22 20:29N 51°20' E 004°20'0 0.0
2018-Apr-22 19:59N 51°20' E 004°20'0 0.0
2018-Apr-22 19:29N 51°20' E 004°20'0 0.0
2018-Apr-22 18:56N 51°20' E 004°20'0 0.0
2018-Apr-22 18:29N 51°20' E 004°20'0 0.0
2018-Apr-22 17:59N 51°20' E 004°20'0 0.0
2018-Apr-22 17:26N 51°20' E 004°20'0 0.0
2018-Apr-22 16:47N 51°20' E 004°20'0 0.0
2018-Apr-22 16:26N 51°20' E 004°20'0 0.0
2018-Apr-22 15:44N 51°20' E 004°20'0 0.0
2018-Apr-22 15:20N 51°20' E 004°20'0 0.0
2018-Apr-22 14:59N 51°20' E 004°20'0 0.0
2018-Apr-22 14:29N 51°20' E 004°20'0 0.0
2018-Apr-22 13:56N 51°20' E 004°20'0 0.0
2018-Apr-22 13:29N 51°20' E 004°20'0 0.0
2018-Apr-22 12:59N 51°20' E 004°20'0 0.0
2018-Apr-22 12:29N 51°20' E 004°20'0 0.0
2018-Apr-22 11:56N 51°20' E 004°20'0 0.0
2018-Apr-22 11:26N 51°20' E 004°20'0 0.0
2018-Apr-22 10:59N 51°20' E 004°20'0 0.0
2018-Apr-22 10:11N 51°20' E 004°20'0 0.0
2018-Apr-22 09:56N 51°20' E 004°20'0 0.0
2018-Apr-22 09:20N 51°20' E 004°20'0 0.0
2018-Apr-22 08:47N 51°20' E 004°20'0 0.0
2018-Apr-22 08:20N 51°20' E 004°20'0 0.0
2018-Apr-22 07:50N 51°20' E 004°20'0 0.0
2018-Apr-22 07:26N 51°20' E 004°20'0 0.0
2018-Apr-22 06:59N 51°20' E 004°20'0 0.0
2018-Apr-22 06:26N 51°20' E 004°20'0 0.0
2018-Apr-22 05:50N 51°20' E 004°20'0 0.0
2018-Apr-22 05:26N 51°20' E 004°20'0 0.0
2018-Apr-22 04:56N 51°20' E 004°20'0 0.0
2018-Apr-22 04:26N 51°20' E 004°20'0 0.0
2018-Apr-22 03:59N 51°20' E 004°20'0 0.0
2018-Apr-22 03:29N 51°20' E 004°20'0 0.0
2018-Apr-22 02:56N 51°20' E 004°20'0 0.0
2018-Apr-22 02:29N 51°20' E 004°20'0 0.0
2018-Apr-22 01:59N 51°20' E 004°20'0 0.0
2018-Apr-22 01:26N 51°20' E 004°20'0 0.0
2018-Apr-22 00:59N 51°20' E 004°20'0 0.0
2018-Apr-22 00:29N 51°20' E 004°20'0 0.0
2018-Apr-21 23:59N 51°20' E 004°20'0 0.0
2018-Apr-21 23:29N 51°20' E 004°20'0 0.0
2018-Apr-21 22:56N 51°20' E 004°20'0 0.0
2018-Apr-21 22:23N 51°20' E 004°20'0 0.0
2018-Apr-21 21:59N 51°20' E 004°20'0 0.0
2018-Apr-21 21:29N 51°20' E 004°20'0 0.0
2018-Apr-21 20:56N 51°20' E 004°20'0 0.0
2018-Apr-21 20:29N 51°20' E 004°20'0 0.0
2018-Apr-21 19:59N 51°20' E 004°20'1 2.5
2018-Apr-21 19:30N 51°20' E 004°18'1 2.0
2018-Apr-21 19:00N 51°21' E 004°17'0 0.0
2018-Apr-21 18:30N 51°21' E 004°17'1 2.4
2018-Apr-21 18:00N 51°21' E 004°15'4 8.3
2018-Apr-21 17:31N 51°23' E 004°09'713.3
2018-Apr-21 17:00N 51°26' E 004°00'816.3
2018-Apr-21 16:31N 51°21' E 003°51'714.9
2018-Apr-21 16:01N 51°26' E 003°42'713.0
2018-Apr-21 15:30N 51°25' E 003°31'918.4
2018-Apr-21 15:00N 51°24' E 003°16'  
Track history (hours):
 
Tides and Currents Weather Stations Pressure Air Temp Water Temp Dewpoint Dewpoint Depression Visibility Wind Speed Wind Dir Waves Ship Positions

Thorco Reef

Last reported at 2018-May-01 14:32 UTC. Time now 2018-May-21 09:15 UTC.
Position N 28°04' W 014°06'.
Warning: this ship's position is 19 days out of date.

Length 161 m; draft 7 m.

Type: Ship. MMSI: 477196900.

Date/timePositionNaut miles runAvg speedWind from/ knotsBaromVisibWave heightAir tempDewpointWater temp
2018-May-01 14:32N 28°04' W 014°06'014.7
2018-May-01 14:30N 28°04' W 014°06'814.4
2018-May-01 13:58N 28°08' W 013°59'2414.4
2018-May-01 12:17N 28°26' W 013°41'514.7
2018-May-01 11:59N 28°30' W 013°38'714.8
2018-May-01 11:30N 28°36' W 013°34'714.7
2018-May-01 11:00N 28°43' W 013°30'814.8
2018-May-01 10:30N 28°49' W 013°26'714.9
2018-May-01 10:00N 28°56' W 013°22'714.9
2018-May-01 09:30N 29°02' W 013°17'  
2018-Apr-27 02:51N 49°52' W 004°03'2 5.8
2018-Apr-27 02:27N 49°53' W 004°00'3 6.0
2018-Apr-27 02:01N 49°55' W 003°57'3 6.3
2018-Apr-27 01:31N 49°57' W 003°54'3 6.8
2018-Apr-27 01:00N 49°59' W 003°50'4 7.5
2018-Apr-27 00:30N 50°02' W 003°45'4 8.4
2018-Apr-27 00:00N 50°05' W 003°40'4 8.7
2018-Apr-26 23:30N 50°08' W 003°35'4 8.6
2018-Apr-26 23:00N 50°10' W 003°30'4 8.3
2018-Apr-26 22:30N 50°14' W 003°26'4 8.4
2018-Apr-26 22:00N 50°18' W 003°23'4 8.0
2018-Apr-26 21:30N 50°21' W 003°21'4 7.7
2018-Apr-26 21:01N 50°24' W 003°18'4 7.4
2018-Apr-26 20:31N 50°27' W 003°14'3 6.9
2018-Apr-26 20:01N 50°29' W 003°10'3 6.4
2018-Apr-26 19:30N 50°32' W 003°06'3 5.5
2018-Apr-26 19:00N 50°33' W 003°02'3 5.7
2018-Apr-26 18:30N 50°33' W 002°58'3 5.3
2018-Apr-26 18:00N 50°32' W 002°54'3 5.0
2018-Apr-26 17:30N 50°32' W 002°50'2 4.9
2018-Apr-26 17:00N 50°32' W 002°46'2 4.8
2018-Apr-26 16:30N 50°32' W 002°42'3 5.1
2018-Apr-26 16:00N 50°31' W 002°38'2 5.0
2018-Apr-26 15:30N 50°29' W 002°35'3 5.6
2018-Apr-26 15:00N 50°28' W 002°31'3 5.9
2018-Apr-26 14:30N 50°27' W 002°27'3 6.1
2018-Apr-26 14:01N 50°25' W 002°23'3 6.5
2018-Apr-26 13:30N 50°24' W 002°18'4 7.1
2018-Apr-26 12:52N 50°22' W 002°12'33 7.9
2018-Apr-26 08:41N 50°22' W 001°19'20 4.0
2018-Apr-26 03:39N 50°23' W 000°48'13 5.3
2018-Apr-26 01:12N 50°25' W 000°28'1 6.5
2018-Apr-26 01:00N 50°25' W 000°26'3 6.6
2018-Apr-26 00:30N 50°26' W 000°21'3 6.7
2018-Apr-26 00:01N 50°27' W 000°16'3 6.8
2018-Apr-25 23:31N 50°28' W 000°10'3 6.7
2018-Apr-25 23:01N 50°29' W 000°05'3 6.3
2018-Apr-25 22:29N 50°30' W 000°00'3 6.0
2018-Apr-25 22:00N 50°31' E 000°04'3 5.5
2018-Apr-25 21:29N 50°31' E 000°08'3 5.3
2018-Apr-25 21:00N 50°32' E 000°12'2 5.0
2018-Apr-25 20:31N 50°33' E 000°16'2 4.7
2018-Apr-25 20:00N 50°33' E 000°19'2 4.6
2018-Apr-25 19:31N 50°34' E 000°23'2 4.5
2018-Apr-25 19:00N 50°35' E 000°26'2 4.2
2018-Apr-25 18:30N 50°35' E 000°29'2 4.0
2018-Apr-25 18:00N 50°36' E 000°32'2 4.1
2018-Apr-25 17:31N 50°37' E 000°35'2 4.3
2018-Apr-25 17:01N 50°38' E 000°38'2 4.6
2018-Apr-25 16:30N 50°39' E 000°41'2 4.9
2018-Apr-25 16:00N 50°40' E 000°44'3 5.6
2018-Apr-25 15:31N 50°42' E 000°48'3 6.1
2018-Apr-25 15:01N 50°44' E 000°52'3 6.6
2018-Apr-25 14:31N 50°46' E 000°56'3 6.6
2018-Apr-25 14:01N 50°48' E 001°01'3 6.7
2018-Apr-25 13:29N 50°49' E 001°05'4 6.4
2018-Apr-25 12:55N 50°52' E 001°10'3 6.2
2018-Apr-25 12:23N 50°53' E 001°14'4 6.4
2018-Apr-25 11:49N 50°56' E 001°19'2 6.5
2018-Apr-25 11:29N 50°57' E 001°21'3 6.1
2018-Apr-25 11:01N 50°59' E 001°24'3 5.5
2018-Apr-25 10:31N 51°01' E 001°27'3 5.2
2018-Apr-25 10:00N 51°03' E 001°30'2 4.6
2018-Apr-25 09:31N 51°05' E 001°33'2 4.4
2018-Apr-25 09:00N 51°06' E 001°35'2 4.1
2018-Apr-25 08:31N 51°08' E 001°38'2 4.3
2018-Apr-25 08:01N 51°09' E 001°40'2 4.5
2018-Apr-25 07:31N 51°11' E 001°43'2 4.9
2018-Apr-25 07:00N 51°13' E 001°45'3 5.7
2018-Apr-25 06:30N 51°15' E 001°48'3 6.4
2018-Apr-25 06:00N 51°18' E 001°51'4 7.3
2018-Apr-25 05:31N 51°21' E 001°54'4 7.8
2018-Apr-25 05:01N 51°24' E 001°58'3 5.8
2018-Apr-25 04:30N 51°24' E 002°03'3 6.0
2018-Apr-25 04:01N 51°23' E 002°07'3 6.1
2018-Apr-25 03:31N 51°22' E 002°12'3 5.8
2018-Apr-25 03:00N 51°21' E 002°16'3 5.6
2018-Apr-25 02:30N 51°21' E 002°20'3 5.7
2018-Apr-25 02:01N 51°22' E 002°25'3 5.4
2018-Apr-25 01:30N 51°22' E 002°29'3 5.1
2018-Apr-25 00:59N 51°23' E 002°33'2 4.4
2018-Apr-25 00:29N 51°23' E 002°37'2 4.3
2018-Apr-25 00:00N 51°23' E 002°40'4 7.0
2018-Apr-24 23:28N 51°22' E 002°46'511.1
2018-Apr-24 23:00N 51°23' E 002°54'712.6
2018-Apr-24 22:28N 51°24' E 003°04'612.8
2018-Apr-24 22:00N 51°25' E 003°14'713.2
2018-Apr-24 21:30N 51°25' E 003°25'613.0
2018-Apr-24 21:00N 51°26' E 003°35'5 9.5
2018-Apr-24 20:30N 51°25' E 003°42'612.3
2018-Apr-24 20:01N 51°21' E 003°49'611.4
2018-Apr-24 19:31N 51°23' E 003°57'3 6.7
2018-Apr-24 19:01N 51°24' E 004°02'5 9.8
2018-Apr-24 18:30N 51°23' E 004°10'4 8.6
2018-Apr-24 18:01N 51°21' E 004°16'1 2.1
2018-Apr-24 17:29N 51°21' E 004°17'0 0.0
2018-Apr-24 16:59N 51°21' E 004°17'0 0.0
2018-Apr-24 16:30N 51°21' E 004°17'0 0.5
2018-Apr-24 16:00N 51°21' E 004°18'2 3.0
2018-Apr-24 15:30N 51°20' E 004°19'0 0.7
2018-Apr-24 14:59N 51°20' E 004°20'0 0.0
2018-Apr-24 14:26N 51°20' E 004°20'0 0.0
2018-Apr-24 13:59N 51°20' E 004°20'0 0.0
2018-Apr-24 13:29N 51°20' E 004°20'0 0.0
2018-Apr-24 12:59N 51°20' E 004°20'0 0.0
2018-Apr-24 12:14N 51°20' E 004°20'0 0.0
2018-Apr-24 11:59N 51°20' E 004°20'0 0.0
2018-Apr-24 11:20N 51°20' E 004°20'0 0.0
2018-Apr-24 10:56N 51°20' E 004°20'0 0.0
2018-Apr-24 10:26N 51°20' E 004°20'0 0.0
2018-Apr-24 09:59N 51°20' E 004°20'0 0.0
2018-Apr-24 09:26N 51°20' E 004°20'0 0.0
2018-Apr-24 08:56N 51°20' E 004°20'0 0.0
2018-Apr-24 08:29N 51°20' E 004°20'0 0.0
2018-Apr-24 07:56N 51°20' E 004°20'0 0.0
2018-Apr-24 07:26N 51°20' E 004°20'0 0.0
2018-Apr-24 06:59N 51°20' E 004°20'0 0.0
2018-Apr-24 06:29N 51°20' E 004°20'0 0.0
2018-Apr-24 05:59N 51°20' E 004°20'0 0.0
2018-Apr-24 05:29N 51°20' E 004°20'0 0.0
2018-Apr-24 04:59N 51°20' E 004°20'0 0.0
2018-Apr-24 04:29N 51°20' E 004°20'0 0.0
2018-Apr-24 03:59N 51°20' E 004°20'0 0.0
2018-Apr-24 03:29N 51°20' E 004°20'0 0.0
2018-Apr-24 02:59N 51°20' E 004°20'0 0.0
2018-Apr-24 02:29N 51°20' E 004°20'0 0.0
2018-Apr-24 01:59N 51°20' E 004°20'0 0.0
2018-Apr-24 01:29N 51°20' E 004°20'0 0.0
2018-Apr-24 00:56N 51°20' E 004°20'0 0.0
2018-Apr-24 00:29N 51°20' E 004°20'0 0.0
2018-Apr-23 23:59N 51°20' E 004°20'0 0.0
2018-Apr-23 23:29N 51°20' E 004°20'0 0.0
2018-Apr-23 22:59N 51°20' E 004°20'0 0.0
2018-Apr-23 22:29N 51°20' E 004°20'0 0.0
2018-Apr-23 21:59N 51°20' E 004°20'0 0.0
2018-Apr-23 21:29N 51°20' E 004°20'0 0.0
2018-Apr-23 20:56N 51°20' E 004°20'0 0.0
2018-Apr-23 20:29N 51°20' E 004°20'0 0.0
2018-Apr-23 19:59N 51°20' E 004°20'0 0.0
2018-Apr-23 19:26N 51°20' E 004°20'0 0.0
2018-Apr-23 18:56N 51°20' E 004°20'0 0.0
2018-Apr-23 18:29N 51°20' E 004°20'0 0.0
2018-Apr-23 17:59N 51°20' E 004°20'0 0.0
2018-Apr-23 17:29N 51°20' E 004°20'0 0.0
2018-Apr-23 16:53N 51°20' E 004°20'0 0.0
2018-Apr-23 16:26N 51°20' E 004°20'0 0.0
2018-Apr-23 15:59N 51°20' E 004°20'0 0.0
2018-Apr-23 15:29N 51°20' E 004°20'0 0.0
2018-Apr-23 14:50N 51°20' E 004°20'0 0.0
2018-Apr-23 14:29N 51°20' E 004°20'0 0.0
2018-Apr-23 13:59N 51°20' E 004°20'0 0.0
2018-Apr-23 13:29N 51°20' E 004°20'0 0.0
2018-Apr-23 12:50N 51°20' E 004°20'0 0.0
2018-Apr-23 12:14N 51°20' E 004°20'0 0.0
2018-Apr-23 11:59N 51°20' E 004°20'0 0.0
2018-Apr-23 11:20N 51°20' E 004°20'0 0.0
2018-Apr-23 10:53N 51°20' E 004°20'0 0.0
2018-Apr-23 10:26N 51°20' E 004°20'0 0.0
2018-Apr-23 09:59N 51°20' E 004°20'0 0.0
2018-Apr-23 09:26N 51°20' E 004°20'0 0.0
2018-Apr-23 08:59N 51°20' E 004°20'0 0.0
2018-Apr-23 08:26N 51°20' E 004°20'0 0.0
2018-Apr-23 07:50N 51°20' E 004°20'0 0.0
2018-Apr-23 07:26N 51°20' E 004°20'0 0.0
2018-Apr-23 06:59N 51°20' E 004°20'0 0.0
2018-Apr-23 06:26N 51°20' E 004°20'0 0.0
2018-Apr-23 05:56N 51°20' E 004°20'0 0.0
2018-Apr-23 05:20N 51°20' E 004°20'0 0.0
2018-Apr-23 04:59N 51°20' E 004°20'0 0.0
2018-Apr-23 04:29N 51°20' E 004°20'0 0.0
2018-Apr-23 03:59N 51°20' E 004°20'0 0.0
2018-Apr-23 03:29N 51°20' E 004°20'0 0.0
2018-Apr-23 02:53N 51°20' E 004°20'0 0.0
2018-Apr-23 02:20N 51°20' E 004°20'0 0.0
2018-Apr-23 01:59N 51°20' E 004°20'0 0.0
2018-Apr-23 01:29N 51°20' E 004°20'0 0.0
2018-Apr-23 00:56N 51°20' E 004°20'0 0.0
2018-Apr-23 00:29N 51°20' E 004°20'0 0.0
2018-Apr-22 23:59N 51°20' E 004°20'0 0.0
2018-Apr-22 23:29N 51°20' E 004°20'0 0.0
2018-Apr-22 22:59N 51°20' E 004°20'0 0.0
2018-Apr-22 22:26N 51°20' E 004°20'0 0.0
2018-Apr-22 21:59N 51°20' E 004°20'0 0.0
2018-Apr-22 21:29N 51°20' E 004°20'0 0.0
2018-Apr-22 20:59N 51°20' E 004°20'0 0.0
2018-Apr-22 20:29N 51°20' E 004°20'0 0.0
2018-Apr-22 19:59N 51°20' E 004°20'0 0.0
2018-Apr-22 19:29N 51°20' E 004°20'0 0.0
2018-Apr-22 18:56N 51°20' E 004°20'0 0.0
2018-Apr-22 18:29N 51°20' E 004°20'0 0.0
2018-Apr-22 17:59N 51°20' E 004°20'0 0.0
2018-Apr-22 17:26N 51°20' E 004°20'0 0.0
2018-Apr-22 16:47N 51°20' E 004°20'0 0.0
2018-Apr-22 16:26N 51°20' E 004°20'0 0.0
2018-Apr-22 15:44N 51°20' E 004°20'0 0.0
2018-Apr-22 15:20N 51°20' E 004°20'0 0.0
2018-Apr-22 14:59N 51°20' E 004°20'0 0.0
2018-Apr-22 14:29N 51°20' E 004°20'0 0.0
2018-Apr-22 13:56N 51°20' E 004°20'0 0.0
2018-Apr-22 13:29N 51°20' E 004°20'0 0.0
2018-Apr-22 12:59N 51°20' E 004°20'0 0.0
2018-Apr-22 12:29N 51°20' E 004°20'0 0.0
2018-Apr-22 11:56N 51°20' E 004°20'0 0.0
2018-Apr-22 11:26N 51°20' E 004°20'0 0.0
2018-Apr-22 10:59N 51°20' E 004°20'0 0.0
2018-Apr-22 10:11N 51°20' E 004°20'0 0.0
2018-Apr-22 09:56N 51°20' E 004°20'0 0.0
2018-Apr-22 09:20N 51°20' E 004°20'0 0.0
2018-Apr-22 08:47N 51°20' E 004°20'0 0.0
2018-Apr-22 08:20N 51°20' E 004°20'0 0.0
2018-Apr-22 07:50N 51°20' E 004°20'0 0.0
2018-Apr-22 07:26N 51°20' E 004°20'0 0.0
2018-Apr-22 06:59N 51°20' E 004°20'0 0.0
2018-Apr-22 06:26N 51°20' E 004°20'0 0.0
2018-Apr-22 05:50N 51°20' E 004°20'0 0.0
2018-Apr-22 05:26N 51°20' E 004°20'0 0.0
2018-Apr-22 04:56N 51°20' E 004°20'0 0.0
2018-Apr-22 04:26N 51°20' E 004°20'0 0.0
2018-Apr-22 03:59N 51°20' E 004°20'0 0.0
2018-Apr-22 03:29N 51°20' E 004°20'0 0.0
2018-Apr-22 02:56N 51°20' E 004°20'0 0.0
2018-Apr-22 02:29N 51°20' E 004°20'0 0.0
2018-Apr-22 01:59N 51°20' E 004°20'0 0.0
2018-Apr-22 01:26N 51°20' E 004°20'0 0.0
2018-Apr-22 00:59N 51°20' E 004°20'0 0.0
2018-Apr-22 00:29N 51°20' E 004°20'0 0.0
2018-Apr-21 23:59N 51°20' E 004°20'0 0.0
2018-Apr-21 23:29N 51°20' E 004°20'0 0.0
2018-Apr-21 22:56N 51°20' E 004°20'0 0.0
2018-Apr-21 22:23N 51°20' E 004°20'0 0.0
2018-Apr-21 21:59N 51°20' E 004°20'0 0.0
2018-Apr-21 21:29N 51°20' E 004°20'0 0.0
2018-Apr-21 20:56N 51°20' E 004°20'0 0.0
2018-Apr-21 20:29N 51°20' E 004°20'0 0.0
2018-Apr-21 19:59N 51°20' E 004°20'1 2.5
2018-Apr-21 19:30N 51°20' E 004°18'1 2.0
2018-Apr-21 19:00N 51°21' E 004°17'0 0.0
2018-Apr-21 18:30N 51°21' E 004°17'1 2.4
2018-Apr-21 18:00N 51°21' E 004°15'4 8.3
2018-Apr-21 17:31N 51°23' E 004°09'713.3
2018-Apr-21 17:00N 51°26' E 004°00'816.3
2018-Apr-21 16:31N 51°21' E 003°51'714.9
2018-Apr-21 16:01N 51°26' E 003°42'713.0
2018-Apr-21 15:30N 51°25' E 003°31'918.4
2018-Apr-21 15:00N 51°24' E 003°16'  

Dump ship's entire track history